Larkspur — C6BR6 — position and weather

sailwx.info

Track history (hours):
 
Tides and Currents Weather Stations Pressure Air Temp Water Temp Dewpoint Dewpoint Depression Visibility Wind Speed Wind Dir Waves Ship Positions

Larkspur

Operator: Transeuropa Lines

Last reported at 2018-Feb-19 07:34 UTC. Time now 2018-Feb-19 10:11 UTC.
Position N 26°58' W 093°45'.

Length 225 m; draft 11.9 m.

Type: Tanker. MMSI: 311000344.

Date/timePositionNaut miles runAvg speedWind from/ knotsBaromVisibWave heightAir tempDewpointWater temp
2018-Feb-19 07:34N 26°58' W 093°45'515.1
2018-Feb-19 07:16N 27°02' W 093°48'415.1
2018-Feb-19 07:00N 27°05' W 093°50'11514.1
2018-Feb-18 22:48N 28°56' W 094°25'512.7
2018-Feb-18 22:24N 29°01' W 094°25'1411.7
2018-Feb-18 21:15N 29°13' W 094°32'1310.4
2018-Feb-18 19:59N 29°21' W 094°44'5 9.4
2018-Feb-18 19:25N 29°24' W 094°49'510.9
2018-Feb-18 18:59N 29°28' W 094°51'510.7
2018-Feb-18 18:30N 29°33' W 094°54'5 9.6
2018-Feb-18 18:00N 29°37' W 094°57'4 8.7
2018-Feb-18 17:30N 29°41' W 094°59'3 5.9
2018-Feb-18 17:00N 29°43' W 095°01'3 5.3
2018-Feb-18 16:29N 29°45' W 095°04'2 4.6
2018-Feb-18 15:59N 29°45' W 095°06'  
2018-Feb-14 23:42N 29°44' W 095°08'0 0.1
2018-Feb-14 23:30N 29°44' W 095°08'1 2.3
2018-Feb-14 22:59N 29°45' W 095°06'2 5.0
2018-Feb-14 22:30N 29°44' W 095°04'3 6.9
2018-Feb-14 22:00N 29°42' W 095°01'1 2.2
2018-Feb-14 21:30N 29°41' W 095°00'0 0.0
2018-Feb-13 22:28N 29°41' W 095°01'1 1.7
2018-Feb-13 22:00N 29°41' W 094°60'2 4.6
2018-Feb-13 21:30N 29°39' W 094°58'4 8.4
2018-Feb-13 20:59N 29°35' W 094°56'611.8
2018-Feb-13 20:30N 29°30' W 094°52'713.1
2018-Feb-13 19:58N 29°24' W 094°49'1312.0
2018-Feb-13 18:54N 29°18' W 094°36'  
Track history (hours):
 
Tides and Currents Weather Stations Pressure Air Temp Water Temp Dewpoint Dewpoint Depression Visibility Wind Speed Wind Dir Waves Ship Positions

Larkspur

Operator: Transeuropa Lines

Last reported at 2018-Feb-19 07:34 UTC. Time now 2018-Feb-19 10:11 UTC.
Position N 26°58' W 093°45'.

Length 225 m; draft 11.9 m.

Type: Tanker. MMSI: 311000344.

Date/timePositionNaut miles runAvg speedWind from/ knotsBaromVisibWave heightAir tempDewpointWater temp
2018-Feb-19 07:34N 26°58' W 093°45'515.1
2018-Feb-19 07:16N 27°02' W 093°48'415.1
2018-Feb-19 07:00N 27°05' W 093°50'11514.1
2018-Feb-18 22:48N 28°56' W 094°25'512.7
2018-Feb-18 22:24N 29°01' W 094°25'1411.7
2018-Feb-18 21:15N 29°13' W 094°32'1310.4
2018-Feb-18 19:59N 29°21' W 094°44'5 9.4
2018-Feb-18 19:25N 29°24' W 094°49'510.9
2018-Feb-18 18:59N 29°28' W 094°51'510.7
2018-Feb-18 18:30N 29°33' W 094°54'5 9.6
2018-Feb-18 18:00N 29°37' W 094°57'4 8.7
2018-Feb-18 17:30N 29°41' W 094°59'3 5.9
2018-Feb-18 17:00N 29°43' W 095°01'3 5.3
2018-Feb-18 16:29N 29°45' W 095°04'2 4.6
2018-Feb-18 15:59N 29°45' W 095°06'  
2018-Feb-14 23:42N 29°44' W 095°08'0 0.1
2018-Feb-14 23:30N 29°44' W 095°08'1 2.3
2018-Feb-14 22:59N 29°45' W 095°06'2 5.0
2018-Feb-14 22:30N 29°44' W 095°04'3 6.9
2018-Feb-14 22:00N 29°42' W 095°01'1 2.2
2018-Feb-14 21:30N 29°41' W 095°00'0 0.0
2018-Feb-13 22:28N 29°41' W 095°01'1 1.7
2018-Feb-13 22:00N 29°41' W 094°60'2 4.6
2018-Feb-13 21:30N 29°39' W 094°58'4 8.4
2018-Feb-13 20:59N 29°35' W 094°56'611.8
2018-Feb-13 20:30N 29°30' W 094°52'713.1
2018-Feb-13 19:58N 29°24' W 094°49'1312.0
2018-Feb-13 18:54N 29°18' W 094°36'  

Dump ship's entire track history